Time;durP1;ratioP1;P1;durP2;ratioP2;P2;SDS_P1;SDS_P2;PMS_P1;PMS_P2;Temp;Humidity;BMP_temperature;BMP_pressure;BME280_temperature;BME280_humidity;BME280_pressure;Samples;Min_cycle;Max_cycle;Signal;HPM_P1;HPM_P2
2021/08/13 00:01:03;;;;;;;17.50;9.65;;;;;;;;;;5065074;28;20104;-50
2021/08/13 00:03:28;;;;;;;20.33;8.20;;;;;;;;;;5073268;28;20029;-44
2021/08/13 00:05:54;;;;;;;19.77;10.10;;;;;;;;;;5077414;28;20021;-46
2021/08/13 00:08:19;;;;;;;33.20;8.98;;;;;;;;;;5074506;28;20063;-45
2021/08/13 00:10:44;;;;;;;31.45;11.50;;;;;;;;;;5074441;28;20017;-48
2021/08/13 00:13:09;;;;;;;18.27;9.48;;;;;;;;;;5076673;28;20013;-51
2021/08/13 00:15:35;;;;;;;13.50;7.60;;;;;;;;;;5073996;28;20020;-46
2021/08/13 00:18:00;;;;;;;17.55;8.07;;;;;;;;;;5076185;28;20012;-46
2021/08/13 00:20:25;;;;;;;29.63;8.80;;;;;;;;;;5072965;28;20077;-44
2021/08/13 00:22:51;;;;;;;17.33;7.78;;;;;;;;;;5076661;28;20107;-45
2021/08/13 00:25:17;;;;;;;18.50;7.43;;;;;;;;;;5073947;28;20024;-45
2021/08/13 00:27:42;;;;;;;24.42;9.88;;;;;;;;;;5072926;28;20540;-45
2021/08/13 00:30:08;;;;;;;36.15;9.05;;;;;;;;;;5074318;28;20107;-44
2021/08/13 00:32:34;;;;;;;16.90;9.20;;;;;;;;;;5072920;28;20472;-44
2021/08/13 00:34:59;;;;;;;17.92;10.18;;;;;;;;;;5074967;28;20012;-48
2021/08/13 00:37:24;;;;;;;30.33;9.65;;;;;;;;;;5071563;28;20036;-45
2021/08/13 00:39:49;;;;;;;26.25;8.10;;;;;;;;;;5072330;28;20107;-45
2021/08/13 00:42:15;;;;;;;19.08;11.52;;;;;;;;;;5074405;28;20077;-48
2021/08/13 00:44:40;;;;;;;30.88;9.07;;;;;;;;;;5072388;28;20020;-44
2021/08/13 00:47:06;;;;;;;52.83;10.98;;;;;;;;;;5071263;28;20042;-53
2021/08/13 00:49:31;;;;;;;32.65;9.73;;;;;;;;;;5073893;28;20062;-47
2021/08/13 00:51:56;;;;;;;18.15;9.40;;;;;;;;;;5074770;28;20051;-51
2021/08/13 00:54:22;;;;;;;19.33;9.13;;;;;;;;;;5072958;28;20394;-50
2021/08/13 00:56:48;;;;;;;22.30;10.13;;;;;;;;;;5070318;28;20016;-50
2021/08/13 00:59:13;;;;;;;21.17;7.80;;;;;;;;;;5077789;28;20044;-47
2021/08/13 01:01:38;;;;;;;10.25;6.28;;;;;;;;;;5072899;28;20139;-45
2021/08/13 01:04:04;;;;;;;21.60;8.23;;;;;;;;;;5070092;28;20020;-47
2021/08/13 01:06:29;;;;;;;20.23;9.10;;;;;;;;;;5076960;28;20150;-46
2021/08/13 01:08:54;;;;;;;15.68;10.23;;;;;;;;;;5073365;28;20498;-49
2021/08/13 01:11:40;;;;;;;22.75;8.75;;;;;;;;;;5075230;28;20084;-45
2021/08/13 01:14:12;;;;;;;26.35;11.30;;;;;;;;;;5048232;28;20036;-46
2021/08/13 01:16:40;;;;;;;16.92;9.43;;;;;;;;;;5073029;28;20179;-43
2021/08/13 01:19:15;;;;;;;24.73;9.98;;;;;;;;;;5073864;28;20031;-48
2021/08/13 01:21:40;;;;;;;27.65;9.10;;;;;;;;;;5076368;28;20025;-46
2021/08/13 01:24:10;;;;;;;13.00;8.27;;;;;;;;;;5073181;28;20084;-47
2021/08/13 01:26:39;;;;;;;20.75;9.50;;;;;;;;;;5070591;28;20110;-46
2021/08/13 01:29:22;;;;;;;30.58;8.80;;;;;;;;;;5073800;28;20020;-46
2021/08/13 01:31:57;;;;;;;27.10;7.65;;;;;;;;;;5068722;28;20107;-46
2021/08/13 01:34:23;;;;;;;13.13;7.80;;;;;;;;;;5074961;28;20031;-46
2021/08/13 01:36:49;;;;;;;22.70;7.95;;;;;;;;;;5074794;28;20021;-45
2021/08/13 01:39:15;;;;;;;14.18;8.63;;;;;;;;;;5075651;28;20100;-44
2021/08/13 01:41:42;;;;;;;22.63;8.48;;;;;;;;;;5076219;28;20016;-44
2021/08/13 01:44:09;;;;;;;13.00;10.07;;;;;;;;;;5077330;28;20025;-45
2021/08/13 01:46:34;;;;;;;23.63;8.20;;;;;;;;;;5075743;28;20019;-49
2021/08/13 01:49:00;;;;;;;23.98;12.13;;;;;;;;;;5074537;28;20415;-48
2021/08/13 01:51:26;;;;;;;17.05;8.65;;;;;;;;;;5074482;28;20016;-48
2021/08/13 01:53:52;;;;;;;17.00;10.10;;;;;;;;;;5077038;28;20021;-46
2021/08/13 01:56:18;;;;;;;26.85;10.13;;;;;;;;;;5075655;28;20377;-45
2021/08/13 01:58:44;;;;;;;39.38;10.82;;;;;;;;;;5074906;28;20057;-44
2021/08/13 02:01:09;;;;;;;23.00;8.98;;;;;;;;;;5076231;28;20141;-44
2021/08/13 02:03:37;;;;;;;26.02;10.02;;;;;;;;;;5076535;28;20032;-46
2021/08/13 02:06:03;;;;;;;21.67;9.15;;;;;;;;;;5074187;28;20024;-44
2021/08/13 02:08:28;;;;;;;14.73;7.40;;;;;;;;;;5075770;28;20112;-47
2021/08/13 02:10:54;;;;;;;29.00;9.80;;;;;;;;;;5079397;28;20129;-45
2021/08/13 02:13:19;;;;;;;22.65;11.43;;;;;;;;;;5077193;28;20024;-44
2021/08/13 02:15:48;;;;;;;19.13;10.63;;;;;;;;;;5073919;28;20024;-46
2021/08/13 02:18:21;;;;;;;15.60;10.23;;;;;;;;;;5076782;28;20021;-45
2021/08/13 02:20:47;;;;;;;26.20;9.35;;;;;;;;;;5074342;28;20012;-46
2021/08/13 02:23:15;;;;;;;14.98;8.40;;;;;;;;;;5070736;28;20103;-49
2021/08/13 02:25:40;;;;;;;16.80;9.95;;;;;;;;;;5075478;28;20046;-47
2021/08/13 02:28:06;;;;;;;20.50;10.27;;;;;;;;;;5073868;28;20100;-47
2021/08/13 02:30:31;;;;;;;18.95;10.00;;;;;;;;;;5075198;28;20028;-49
2021/08/13 02:32:56;;;;;;;30.77;8.95;;;;;;;;;;5073679;28;20012;-48
2021/08/13 02:35:22;;;;;;;18.55;9.93;;;;;;;;;;5073038;28;20096;-45
2021/08/13 02:38:06;;;;;;;15.00;8.68;;;;;;;;;;5071985;28;20020;-45
2021/08/13 02:40:34;;;;;;;31.55;9.82;;;;;;;;;;5075487;28;20024;-44
2021/08/13 02:43:18;;;;;;;20.20;9.43;;;;;;;;;;5074234;28;20034;-44
2021/08/13 02:45:44;;;;;;;19.55;8.20;;;;;;;;;;5073957;28;20040;-48
2021/08/13 02:48:10;;;;;;;25.70;7.95;;;;;;;;;;5075934;28;20035;-51
2021/08/13 02:50:37;;;;;;;21.00;9.93;;;;;;;;;;5076507;28;20021;-49
2021/08/13 02:53:08;;;;;;;22.52;8.82;;;;;;;;;;5081260;28;20025;-49
2021/08/13 02:55:34;;;;;;;;;;;;;;;;;;5073422;28;20098;-49
2021/08/13 02:58:00;;;;;;;22.15;9.02;;;;;;;;;;5072996;28;19943;-47
2021/08/13 03:00:26;;;;;;;29.80;8.90;;;;;;;;;;5074037;28;20017;-51
2021/08/13 03:02:53;;;;;;;15.65;8.93;;;;;;;;;;5071536;28;20049;-49
2021/08/13 03:05:20;;;;;;;31.85;9.88;;;;;;;;;;5076799;28;20116;-46
2021/08/13 03:07:46;;;;;;;31.55;9.55;;;;;;;;;;5072817;28;20028;-48
2021/08/13 03:10:11;;;;;;;28.52;10.05;;;;;;;;;;5073177;28;20027;-46
2021/08/13 03:12:37;;;;;;;23.92;9.32;;;;;;;;;;5075485;28;20056;-48
2021/08/13 03:15:03;;;;;;;34.60;10.23;;;;;;;;;;5074445;28;20020;-45
2021/08/13 03:17:28;;;;;;;20.70;11.10;;;;;;;;;;5075564;28;20495;-45
2021/08/13 03:19:54;;;;;;;23.58;10.98;;;;;;;;;;5079833;28;20020;-47
2021/08/13 03:22:19;;;;;;;14.23;9.20;;;;;;;;;;5077418;28;20025;-46
2021/08/13 03:24:45;;;;;;;24.80;9.48;;;;;;;;;;5070372;28;20107;-50
2021/08/13 03:27:10;;;;;;;22.38;8.18;;;;;;;;;;5077550;28;20020;-48
2021/08/13 03:29:36;;;;;;;27.40;9.63;;;;;;;;;;5077267;28;20600;-48
2021/08/13 03:32:04;;;;;;;24.27;8.38;;;;;;;;;;5076697;28;20055;-47
2021/08/13 03:34:30;;;;;;;36.65;9.57;;;;;;;;;;5074451;28;20115;-47
2021/08/13 03:36:57;;;;;;;17.52;9.23;;;;;;;;;;5068889;28;20119;-49
2021/08/13 03:39:22;;;;;;;13.45;7.22;;;;;;;;;;5069121;28;20032;-45
2021/08/13 03:41:48;;;;;;;21.25;8.18;;;;;;;;;;5072953;28;20043;-44
2021/08/13 03:44:13;;;;;;;18.98;8.50;;;;;;;;;;5074943;28;20021;-44
2021/08/13 03:46:38;;;;;;;29.40;10.27;;;;;;;;;;5078169;28;20016;-44
2021/08/13 03:49:04;;;;;;;23.17;9.10;;;;;;;;;;5074254;28;20024;-45
2021/08/13 03:51:29;;;;;;;46.97;8.57;;;;;;;;;;5072286;28;20012;-46
2021/08/13 03:53:54;;;;;;;20.10;9.23;;;;;;;;;;5073501;28;20024;-43
2021/08/13 03:56:20;;;;;;;19.05;8.07;;;;;;;;;;5069851;28;20021;-43
2021/08/13 03:58:45;;;;;;;21.48;8.32;;;;;;;;;;5074221;28;20013;-50
2021/08/13 04:01:10;;;;;;;28.80;10.00;;;;;;;;;;5074511;28;20057;-49
2021/08/13 04:03:36;;;;;;;25.45;9.20;;;;;;;;;;5074381;28;20028;-47
2021/08/13 04:06:01;;;;;;;17.42;7.93;;;;;;;;;;5075896;28;20475;-46
2021/08/13 04:08:27;;;;;;;23.40;9.93;;;;;;;;;;5073221;28;20020;-47
2021/08/13 04:10:52;;;;;;;35.15;9.20;;;;;;;;;;5072614;28;20027;-43
2021/08/13 04:13:17;;;;;;;17.15;9.00;;;;;;;;;;5075850;28;20044;-44
2021/08/13 04:15:44;;;;;;;22.88;8.43;;;;;;;;;;5070382;28;20515;-45
2021/08/13 04:18:09;;;;;;;17.83;10.55;;;;;;;;;;5073376;28;20024;-45
2021/08/13 04:20:35;;;;;;;25.35;10.50;;;;;;;;;;5071298;28;20043;-45
2021/08/13 04:23:00;;;;;;;21.85;9.52;;;;;;;;;;5073528;28;20541;-45
2021/08/13 04:25:25;;;;;;;15.77;8.63;;;;;;;;;;5074955;28;20020;-47
2021/08/13 04:27:51;;;;;;;25.33;7.97;;;;;;;;;;5074248;28;20099;-47
2021/08/13 04:30:16;;;;;;;16.83;8.05;;;;;;;;;;5072193;28;20076;-44
2021/08/13 04:32:41;;;;;;;36.10;10.98;;;;;;;;;;5074176;28;20020;-47
2021/08/13 04:35:07;;;;;;;13.77;7.50;;;;;;;;;;5075117;28;20031;-44
2021/08/13 04:37:33;;;;;;;19.55;10.73;;;;;;;;;;5077023;28;20028;-45
2021/08/13 04:39:58;;;;;;;19.77;8.25;;;;;;;;;;5074009;28;20704;-44
2021/08/13 04:42:23;;;;;;;17.95;9.80;;;;;;;;;;5067629;28;20428;-44
2021/08/13 04:44:48;;;;;;;32.97;11.02;;;;;;;;;;5072210;28;20113;-46
2021/08/13 04:47:14;;;;;;;30.63;10.80;;;;;;;;;;5074386;28;20071;-47
2021/08/13 04:49:39;;;;;;;17.25;10.23;;;;;;;;;;5076847;28;20064;-44
2021/08/13 04:52:05;;;;;;;13.77;9.65;;;;;;;;;;5073349;28;20089;-46
2021/08/13 04:54:30;;;;;;;22.85;9.50;;;;;;;;;;5073330;28;20087;-47
2021/08/13 04:56:56;;;;;;;30.27;8.98;;;;;;;;;;5073371;28;20483;-44
2021/08/13 04:59:21;;;;;;;20.23;11.32;;;;;;;;;;5070766;28;20454;-44
2021/08/13 05:01:46;;;;;;;23.50;13.52;;;;;;;;;;5073106;28;20073;-46
2021/08/13 05:04:12;;;;;;;26.85;12.23;;;;;;;;;;5074085;28;20019;-46
2021/08/13 05:06:37;;;;;;;40.40;11.80;;;;;;;;;;5073830;28;20073;-48
2021/08/13 05:09:02;;;;;;;19.58;9.10;;;;;;;;;;5073963;28;20376;-44
2021/08/13 05:11:28;;;;;;;19.85;9.60;;;;;;;;;;5072804;28;20096;-47
2021/08/13 05:13:53;;;;;;;17.88;7.00;;;;;;;;;;5075632;28;20028;-44
2021/08/13 05:16:18;;;;;;;37.70;14.35;;;;;;;;;;5078171;28;20111;-43
2021/08/13 05:18:43;;;;;;;26.15;13.85;;;;;;;;;;5078507;28;20032;-46
2021/08/13 05:21:09;;;;;;;20.15;9.15;;;;;;;;;;5075527;28;20086;-45
2021/08/13 05:23:34;;;;;;;30.83;10.43;;;;;;;;;;5076430;28;20395;-45
2021/08/13 05:25:59;;;;;;;21.52;9.73;;;;;;;;;;5077205;28;20048;-45
2021/08/13 05:28:25;;;;;;;22.35;10.43;;;;;;;;;;5078374;28;20020;-44
2021/08/13 05:30:50;;;;;;;18.25;10.27;;;;;;;;;;5076992;28;20016;-46
2021/08/13 05:33:16;;;;;;;29.13;11.13;;;;;;;;;;5073614;28;20024;-48
2021/08/13 05:35:41;;;;;;;32.22;12.13;;;;;;;;;;5078913;28;20090;-44
2021/08/13 05:38:06;;;;;;;26.45;12.10;;;;;;;;;;5079286;28;20027;-50
2021/08/13 05:40:32;;;;;;;26.27;11.50;;;;;;;;;;5077547;28;20356;-45
2021/08/13 05:42:59;;;;;;;25.52;11.07;;;;;;;;;;5073011;28;20135;-46
2021/08/13 05:45:24;;;;;;;41.75;12.13;;;;;;;;;;5078339;28;20036;-45
2021/08/13 05:47:49;;;;;;;36.13;12.13;;;;;;;;;;5074799;28;20024;-45
2021/08/13 05:50:18;;;;;;;18.20;12.30;;;;;;;;;;5071248;28;20477;-44
2021/08/13 05:52:44;;;;;;;28.45;15.52;;;;;;;;;;5075904;28;20020;-46
2021/08/13 05:55:09;;;;;;;47.25;13.15;;;;;;;;;;5073346;28;20023;-46
2021/08/13 05:57:35;;;;;;;22.98;12.50;;;;;;;;;;5074113;28;20050;-45
2021/08/13 06:00:00;;;;;;;26.55;12.90;;;;;;;;;;5077926;28;20024;-44
2021/08/13 06:02:25;;;;;;;37.88;12.95;;;;;;;;;;5073903;28;20055;-45
2021/08/13 06:04:51;;;;;;;19.05;9.88;;;;;;;;;;5078114;28;20597;-45
2021/08/13 06:07:16;;;;;;;31.70;12.40;;;;;;;;;;5073614;28;20059;-49
2021/08/13 06:09:41;;;;;;;15.80;10.30;;;;;;;;;;5074402;28;20053;-46
2021/08/13 06:12:07;;;;;;;34.15;10.30;;;;;;;;;;5075644;28;20016;-49
2021/08/13 06:14:32;;;;;;;21.23;9.88;;;;;;;;;;5077953;28;20027;-49
2021/08/13 06:16:59;;;;;;;27.67;11.65;;;;;;;;;;5078993;28;20035;-48
2021/08/13 06:19:25;;;;;;;37.45;16.02;;;;;;;;;;5075791;28;20069;-46
2021/08/13 06:21:50;;;;;;;29.05;11.73;;;;;;;;;;5073269;28;20024;-46
2021/08/13 06:24:15;;;;;;;21.73;10.07;;;;;;;;;;5075325;28;20048;-45
2021/08/13 06:26:41;;;;;;;30.60;10.63;;;;;;;;;;5075450;28;20016;-44
2021/08/13 06:29:06;;;;;;;30.45;12.13;;;;;;;;;;5071205;28;20016;-45
2021/08/13 06:31:31;;;;;;;20.63;11.07;;;;;;;;;;5075265;28;20471;-48
2021/08/13 06:33:57;;;;;;;45.08;10.80;;;;;;;;;;5076145;28;20682;-47
2021/08/13 06:36:22;;;;;;;27.65;10.52;;;;;;;;;;5073895;28;20298;-45
2021/08/13 06:38:47;;;;;;;34.72;12.05;;;;;;;;;;5076328;28;20035;-47
2021/08/13 06:41:13;;;;;;;29.27;15.45;;;;;;;;;;5072995;28;20047;-43
2021/08/13 06:43:38;;;;;;;21.75;9.50;;;;;;;;;;5072437;28;20598;-44
2021/08/13 06:46:03;;;;;;;34.72;12.30;;;;;;;;;;5076050;28;20138;-45
2021/08/13 06:48:29;;;;;;;26.00;11.55;;;;;;;;;;5079027;28;20498;-46
2021/08/13 06:50:54;;;;;;;32.90;10.18;;;;;;;;;;5073157;28;20072;-47
2021/08/13 06:53:19;;;;;;;21.50;10.98;;;;;;;;;;5075118;28;20038;-45
2021/08/13 06:55:45;;;;;;;34.20;11.02;;;;;;;;;;5077539;28;20126;-47
2021/08/13 06:58:10;;;;;;;28.88;11.02;;;;;;;;;;5071934;28;20017;-47
2021/08/13 07:00:35;;;;;;;27.55;9.38;;;;;;;;;;5076739;28;20104;-45
2021/08/13 07:03:01;;;;;;;34.05;9.55;;;;;;;;;;5077436;28;20044;-44
2021/08/13 07:05:26;;;;;;;28.98;10.48;;;;;;;;;;5070970;28;20131;-45
2021/08/13 07:07:51;;;;;;;30.80;10.50;;;;;;;;;;5070350;28;20078;-46
2021/08/13 07:10:17;;;;;;;26.52;9.07;;;;;;;;;;5070131;28;20017;-45
2021/08/13 07:12:42;;;;;;;68.57;18.25;;;;;;;;;;5069941;28;20070;-47
2021/08/13 07:15:09;;;;;;;32.80;14.27;;;;;;;;;;5077287;28;20024;-45
2021/08/13 07:17:35;;;;;;;43.45;15.98;;;;;;;;;;5073592;28;20047;-45
2021/08/13 07:20:00;;;;;;;41.58;16.27;;;;;;;;;;5073144;28;20077;-45
2021/08/13 07:22:26;;;;;;;30.50;10.98;;;;;;;;;;5074243;28;20032;-44
2021/08/13 07:24:51;;;;;;;18.35;11.13;;;;;;;;;;5074340;28;20024;-50
2021/08/13 07:27:16;;;;;;;14.02;9.10;;;;;;;;;;5076055;28;20020;-51
2021/08/13 07:29:42;;;;;;;38.35;14.20;;;;;;;;;;5075857;28;20169;-50
2021/08/13 07:32:07;;;;;;;96.88;24.38;;;;;;;;;;5071096;28;20439;-49
2021/08/13 07:34:32;;;;;;;32.45;12.80;;;;;;;;;;5075926;28;20094;-48
2021/08/13 07:36:57;;;;;;;29.23;10.00;;;;;;;;;;5074958;28;20028;-48
2021/08/13 07:39:23;;;;;;;20.40;12.13;;;;;;;;;;5073783;28;20027;-45
2021/08/13 07:41:48;;;;;;;29.17;13.27;;;;;;;;;;5075060;28;20124;-47
2021/08/13 07:44:13;;;;;;;18.05;10.40;;;;;;;;;;5076072;28;20322;-48
2021/08/13 07:46:39;;;;;;;25.05;10.15;;;;;;;;;;5075253;28;20016;-49
2021/08/13 07:49:04;;;;;;;19.05;10.25;;;;;;;;;;5068398;28;20498;-51
2021/08/13 07:51:29;;;;;;;35.72;10.77;;;;;;;;;;5075048;28;20541;-47
2021/08/13 07:53:55;;;;;;;31.15;10.27;;;;;;;;;;5074602;28;20074;-50
2021/08/13 07:56:20;;;;;;;43.53;12.07;;;;;;;;;;5075908;28;20070;-48
2021/08/13 07:58:45;;;;;;;35.92;13.13;;;;;;;;;;5074554;28;20538;-47
2021/08/13 08:01:11;;;;;;;25.10;10.38;;;;;;;;;;5075782;28;20060;-48
2021/08/13 08:03:36;;;;;;;24.00;10.73;;;;;;;;;;5075213;28;20032;-47
2021/08/13 08:06:03;;;;;;;36.22;11.20;;;;;;;;;;5074899;28;20028;-49
2021/08/13 08:08:28;;;;;;;24.52;9.48;;;;;;;;;;5075803;28;20078;-47
2021/08/13 08:10:53;;;;;;;26.30;11.40;;;;;;;;;;5075243;28;20951;-50
2021/08/13 08:13:19;;;;;;;35.63;13.50;;;;;;;;;;5075076;28;20445;-50
2021/08/13 08:15:46;;;;;;;27.77;10.30;;;;;;;;;;5070482;28;20027;-49
2021/08/13 08:18:11;;;;;;;20.65;10.43;;;;;;;;;;5073802;28;20012;-47
2021/08/13 08:20:36;;;;;;;21.52;9.65;;;;;;;;;;5075726;28;20084;-49
2021/08/13 08:23:02;;;;;;;24.20;9.52;;;;;;;;;;5074471;28;20020;-48
2021/08/13 08:25:27;;;;;;;21.02;8.98;;;;;;;;;;5071674;28;20020;-44
2021/08/13 08:27:52;;;;;;;18.45;9.18;;;;;;;;;;5072375;28;20013;-51
2021/08/13 08:30:18;;;;;;;23.92;8.98;;;;;;;;;;5073920;28;20020;-48
2021/08/13 08:32:43;;;;;;;25.77;10.82;;;;;;;;;;5072131;28;20020;-45
2021/08/13 08:35:08;;;;;;;42.10;10.45;;;;;;;;;;5074705;28;20028;-49
2021/08/13 08:37:34;;;;;;;19.27;10.23;;;;;;;;;;5073535;28;20024;-49
2021/08/13 08:39:59;;;;;;;19.17;9.20;;;;;;;;;;5076353;28;20032;-45
2021/08/13 08:42:24;;;;;;;18.63;9.50;;;;;;;;;;5072553;28;20380;-46
2021/08/13 08:44:50;;;;;;;25.73;12.25;;;;;;;;;;5075332;28;20390;-44
2021/08/13 08:47:16;;;;;;;35.92;12.90;;;;;;;;;;5078923;28;20019;-50
2021/08/13 08:49:42;;;;;;;41.80;15.07;;;;;;;;;;5080985;28;20694;-47
2021/08/13 08:52:08;;;;;;;28.77;11.05;;;;;;;;;;5073770;28;20095;-45
2021/08/13 08:54:34;;;;;;;24.40;13.45;;;;;;;;;;5078514;28;20543;-46
2021/08/13 08:57:00;;;;;;;31.20;12.88;;;;;;;;;;5078658;28;20126;-44
2021/08/13 08:59:26;;;;;;;29.77;12.02;;;;;;;;;;5079086;28;20016;-49
2021/08/13 09:01:51;;;;;;;47.72;10.75;;;;;;;;;;5079668;28;20048;-50
2021/08/13 09:04:16;;;;;;;25.10;11.55;;;;;;;;;;5078844;28;20158;-47
2021/08/13 09:06:42;;;;;;;20.85;8.85;;;;;;;;;;5075892;28;20016;-50
2021/08/13 09:09:08;;;;;;;20.13;7.90;;;;;;;;;;5078131;28;20472;-47
2021/08/13 09:11:37;;;;;;;28.20;7.43;;;;;;;;;;5078252;28;20135;-46
2021/08/13 09:14:04;;;;;;;33.55;13.48;;;;;;;;;;5076585;28;20016;-48
2021/08/13 09:16:30;;;;;;;32.75;8.60;;;;;;;;;;5073918;28;20024;-48
2021/08/13 09:18:57;;;;;;;27.95;6.15;;;;;;;;;;5075428;28;20116;-45
2021/08/13 09:21:22;;;;;;;24.55;8.48;;;;;;;;;;5075469;28;20109;-46
2021/08/13 09:23:48;;;;;;;17.45;10.00;;;;;;;;;;5070630;28;20020;-45
2021/08/13 09:26:23;;;;;;;17.05;8.02;;;;;;;;;;5075876;28;20020;-52
2021/08/13 09:28:48;;;;;;;18.10;7.78;;;;;;;;;;5077839;28;20099;-52
2021/08/13 09:31:15;;;;;;;17.38;7.75;;;;;;;;;;5074937;28;20159;-51
2021/08/13 09:33:41;;;;;;;19.75;8.75;;;;;;;;;;5073900;28;20028;-48
2021/08/13 09:36:07;;;;;;;17.05;6.35;;;;;;;;;;5073282;28;20017;-51
2021/08/13 09:38:32;;;;;;;28.17;8.75;;;;;;;;;;5078326;28;20823;-51
2021/08/13 09:41:08;;;;;;;16.08;5.82;;;;;;;;;;5075516;28;20434;-52
2021/08/13 09:43:33;;;;;;;17.40;5.28;;;;;;;;;;5072409;28;20126;-53
2021/08/13 09:46:06;;;;;;;15.60;6.05;;;;;;;;;;5075092;28;20024;-51
2021/08/13 09:48:32;;;;;;;12.25;4.10;;;;;;;;;;5074586;28;20399;-50
2021/08/13 09:50:57;;;;;;;5.47;2.10;;;;;;;;;;5078686;28;20579;-50
2021/08/13 09:53:22;;;;;;;6.40;2.05;;;;;;;;;;5078149;28;20027;-51
2021/08/13 09:55:48;;;;;;;16.85;3.60;;;;;;;;;;5072547;28;20091;-49
2021/08/13 09:58:23;;;;;;;12.43;5.47;;;;;;;;;;5073437;28;20034;-50
2021/08/13 10:00:50;;;;;;;15.43;6.95;;;;;;;;;;5072336;28;20098;-49
2021/08/13 10:03:15;;;;;;;14.65;5.65;;;;;;;;;;5072518;28;20055;-50
2021/08/13 10:05:41;;;;;;;22.20;5.70;;;;;;;;;;5077393;28;20032;-50
2021/08/13 10:08:07;;;;;;;19.70;7.18;;;;;;;;;;5076865;28;20038;-49
2021/08/13 10:10:33;;;;;;;13.23;5.22;;;;;;;;;;5070642;28;20699;-49
2021/08/13 10:12:59;;;;;;;27.13;4.70;;;;;;;;;;5072441;28;20017;-48
2021/08/13 10:15:30;;;;;;;16.20;5.50;;;;;;;;;;5076265;28;20055;-47
2021/08/13 10:17:59;;;;;;;6.82;3.55;;;;;;;;;;5077522;28;20024;-47
2021/08/13 10:20:26;;;;;;;19.35;8.00;;;;;;;;;;5075869;28;20028;-49
2021/08/13 10:22:51;;;;;;;10.45;4.88;;;;;;;;;;5079115;28;20588;-47
2021/08/13 10:25:18;;;;;;;20.35;6.28;;;;;;;;;;5071328;28;20025;-47
2021/08/13 10:27:43;;;;;;;19.63;5.65;;;;;;;;;;5078111;28;20035;-48
2021/08/13 10:30:09;;;;;;;10.73;5.13;;;;;;;;;;5073155;28;20483;-52
2021/08/13 10:32:36;;;;;;;33.45;20.73;;;;;;;;;;5074574;28;20738;-49
2021/08/13 10:35:01;;;;;;;5.90;5.10;;;;;;;;;;5073028;28;20033;-51
2021/08/13 10:37:27;;;;;;;9.80;3.55;;;;;;;;;;5075616;28;20032;-50
2021/08/13 10:39:54;;;;;;;10.02;4.57;;;;;;;;;;5076080;28;20078;-50
2021/08/13 10:42:23;;;;;;;9.88;2.90;;;;;;;;;;5071479;28;20028;-50
2021/08/13 10:45:00;;;;;;;16.75;5.45;;;;;;;;;;5070363;28;20096;-50
2021/08/13 10:47:27;;;;;;;12.90;5.22;;;;;;;;;;5075072;28;20579;-52
2021/08/13 10:49:52;;;;;;;16.38;6.57;;;;;;;;;;5075902;28;20482;-51
2021/08/13 10:52:30;;;;;;;16.17;5.55;;;;;;;;;;5074245;28;20024;-50
2021/08/13 10:54:55;;;;;;;39.22;8.63;;;;;;;;;;5071861;28;20028;-50
2021/08/13 10:57:41;;;;;;;15.55;6.38;;;;;;;;;;5079121;28;20123;-47
2021/08/13 11:00:06;;;;;;;21.88;4.93;;;;;;;;;;5073916;28;20152;-49
2021/08/13 11:02:31;;;;;;;10.40;4.05;;;;;;;;;;5074595;28;20206;-47
2021/08/13 11:05:02;;;;;;;8.40;3.08;;;;;;;;;;5070636;28;20055;-49
2021/08/13 11:07:46;;;;;;;7.45;2.97;;;;;;;;;;5069942;28;20024;-50
2021/08/13 11:10:30;;;;;;;16.17;3.58;;;;;;;;;;5075282;28;20065;-51
2021/08/13 11:13:08;;;;;;;15.23;5.68;;;;;;;;;;5074666;28;20032;-47
2021/08/13 11:15:37;;;;;;;14.55;7.25;;;;;;;;;;5075538;28;20058;-49
2021/08/13 11:18:22;;;;;;;11.23;5.13;;;;;;;;;;5075729;28;20020;-50
2021/08/13 11:20:48;;;;;;;22.75;6.68;;;;;;;;;;5072069;28;20531;-46
2021/08/13 11:23:13;;;;;;;9.57;4.30;;;;;;;;;;5069625;28;20051;-50
2021/08/13 11:25:48;;;;;;;12.43;9.90;;;;;;;;;;5076628;28;20078;-47
2021/08/13 11:28:18;;;;;;;13.35;5.32;;;;;;;;;;5070256;28;20019;-45
2021/08/13 11:30:45;;;;;;;16.08;5.65;;;;;;;;;;5070883;28;20051;-48
2021/08/13 11:33:25;;;;;;;9.45;4.25;;;;;;;;;;5068666;28;20074;-44
2021/08/13 11:35:51;;;;;;;8.82;4.57;;;;;;;;;;5074073;28;20016;-44
2021/08/13 11:38:35;;;;;;;14.27;5.05;;;;;;;;;;5070646;28;20402;-45
2021/08/13 11:41:21;;;;;;;16.77;4.50;;;;;;;;;;5073501;28;20017;-45
2021/08/13 11:43:50;;;;;;;14.85;4.45;;;;;;;;;;5074290;28;20024;-44
2021/08/13 11:46:23;;;;;;;20.15;6.65;;;;;;;;;;5074893;28;20121;-47
2021/08/13 11:48:48;;;;;;;14.35;6.72;;;;;;;;;;5074931;28;20372;-45
2021/08/13 11:51:14;;;;;;;10.60;4.15;;;;;;;;;;5072923;28;20035;-46
2021/08/13 11:53:39;;;;;;;8.32;3.88;;;;;;;;;;5075729;28;20032;-44
2021/08/13 11:56:04;;;;;;;8.77;4.47;;;;;;;;;;5072287;28;20028;-43
2021/08/13 11:58:29;;;;;;;16.80;3.47;;;;;;;;;;5070654;28;20020;-49
2021/08/13 12:01:02;;;;;;;11.18;4.40;;;;;;;;;;5073401;28;20016;-45
2021/08/13 12:03:27;;;;;;;6.43;3.63;;;;;;;;;;5072957;28;20074;-47
2021/08/13 12:05:52;;;;;;;20.50;5.25;;;;;;;;;;5071188;28;20029;-45
2021/08/13 12:08:17;;;;;;;12.20;3.83;;;;;;;;;;5077252;28;20072;-43
2021/08/13 12:10:47;;;;;;;12.65;5.68;;;;;;;;;;5075954;28;20499;-46
2021/08/13 12:13:13;;;;;;;12.82;6.75;;;;;;;;;;5078296;28;20099;-46
2021/08/13 12:15:39;;;;;;;17.10;6.18;;;;;;;;;;5080354;28;20582;-43
2021/08/13 12:18:05;;;;;;;12.60;5.95;;;;;;;;;;5071954;28;20031;-45
2021/08/13 12:20:31;;;;;;;12.73;5.68;;;;;;;;;;5069924;28;20055;-46
2021/08/13 12:23:07;;;;;;;5.95;4.85;;;;;;;;;;5072492;28;20047;-47
2021/08/13 12:25:32;;;;;;;7.80;4.60;;;;;;;;;;5074689;28;20108;-45
2021/08/13 12:27:58;;;;;;;13.63;5.33;;;;;;;;;;5075989;28;20124;-41
2021/08/13 12:30:23;;;;;;;12.35;3.75;;;;;;;;;;5074540;28;20779;-42
2021/08/13 12:32:49;;;;;;;12.30;4.93;;;;;;;;;;5065549;28;20430;-42
2021/08/13 12:35:14;;;;;;;16.33;6.75;;;;;;;;;;5075199;28;20107;-44
2021/08/13 12:37:40;;;;;;;10.60;3.90;;;;;;;;;;5076490;28;20382;-45
2021/08/13 12:40:08;;;;;;;8.35;4.88;;;;;;;;;;5071792;28;20078;-44
2021/08/13 12:42:34;;;;;;;14.10;4.43;;;;;;;;;;5070361;28;20039;-47
2021/08/13 12:45:00;;;;;;;25.38;8.30;;;;;;;;;;5073582;28;20017;-48
2021/08/13 12:47:25;;;;;;;8.23;3.35;;;;;;;;;;5072039;28;20021;-51
2021/08/13 12:49:51;;;;;;;11.85;3.05;;;;;;;;;;5070442;28;20062;-49
2021/08/13 12:52:24;;;;;;;5.65;3.00;;;;;;;;;;5072748;28;20424;-44
2021/08/13 12:54:51;;;;;;;7.97;2.70;;;;;;;;;;5072699;28;20382;-44
2021/08/13 12:57:18;;;;;;;12.15;4.93;;;;;;;;;;5069668;28;20032;-49
2021/08/13 12:59:45;;;;;;;15.57;3.88;;;;;;;;;;5072483;28;20027;-45
2021/08/13 13:02:24;;;;;;;4.72;3.03;;;;;;;;;;5070900;28;20131;-51
2021/08/13 13:04:50;;;;;;;10.38;2.85;;;;;;;;;;5071903;28;20173;-51
2021/08/13 13:07:27;;;;;;;6.57;3.70;;;;;;;;;;5074404;28;20066;-49
2021/08/13 13:09:53;;;;;;;6.05;2.83;;;;;;;;;;5070351;28;20102;-47
2021/08/13 13:12:22;;;;;;;5.10;2.75;;;;;;;;;;5075322;28;20714;-46
2021/08/13 13:14:50;;;;;;;6.45;3.17;;;;;;;;;;5074157;28;20416;-44
2021/08/13 13:17:17;;;;;;;5.38;2.45;;;;;;;;;;5071863;28;20526;-44
2021/08/13 13:19:42;;;;;;;16.23;3.88;;;;;;;;;;5069490;28;20063;-45
2021/08/13 13:22:21;;;;;;;7.68;3.00;;;;;;;;;;5071102;28;20048;-50
2021/08/13 13:25:07;;;;;;;15.65;4.95;;;;;;;;;;5072270;28;20040;-48
2021/08/13 13:27:51;;;;;;;16.52;4.80;;;;;;;;;;5074159;28;20032;-47
2021/08/13 13:30:42;;;;;;;5.90;3.67;;;;;;;;;;5069081;28;20025;-46
2021/08/13 13:33:28;;;;;;;10.35;5.85;;;;;;;;;;5073745;28;20319;-50
2021/08/13 13:35:55;;;;;;;10.35;5.25;;;;;;;;;;5072464;28;20025;-50
2021/08/13 13:38:23;;;;;;;17.75;4.70;;;;;;;;;;5077216;28;20617;-49
2021/08/13 13:40:49;;;;;;;15.88;4.70;;;;;;;;;;5075493;28;20546;-46
2021/08/13 13:43:14;;;;;;;13.20;6.00;;;;;;;;;;5079268;28;20503;-48
2021/08/13 13:45:40;;;;;;;10.95;4.68;;;;;;;;;;5074633;28;20032;-46
2021/08/13 13:48:05;;;;;;;9.55;4.90;;;;;;;;;;5079095;28;20017;-48
2021/08/13 13:50:31;;;;;;;8.50;4.55;;;;;;;;;;5077085;28;20027;-51
2021/08/13 13:52:56;;;;;;;12.70;4.20;;;;;;;;;;5073087;28;20106;-51
2021/08/13 13:55:24;;;;;;;17.38;7.20;;;;;;;;;;5078210;28;20020;-48
2021/08/13 13:57:49;;;;;;;13.75;6.53;;;;;;;;;;5074507;28;20031;-47
2021/08/13 14:00:15;;;;;;;10.18;5.65;;;;;;;;;;5072639;28;20147;-47
2021/08/13 14:02:41;;;;;;;6.40;4.72;;;;;;;;;;5074605;28;20048;-49
2021/08/13 14:05:08;;;;;;;9.35;4.28;;;;;;;;;;5075974;28;20056;-50
2021/08/13 14:07:37;;;;;;;25.90;5.55;;;;;;;;;;5072842;28;20067;-46
2021/08/13 14:10:05;;;;;;;10.80;5.43;;;;;;;;;;5075154;28;20761;-50
2021/08/13 14:12:31;;;;;;;8.82;5.38;;;;;;;;;;5077134;28;20024;-45
2021/08/13 14:14:56;;;;;;;3.97;2.53;;;;;;;;;;5073659;28;20099;-47
2021/08/13 14:17:21;;;;;;;2.20;1.98;;;;;;;;;;5091130;28;20024;-48
2021/08/13 14:19:46;;;;;;;6.80;3.90;;;;;;;;;;5075723;28;20051;-46
2021/08/13 14:22:12;;;;;;;11.07;4.28;;;;;;;;;;5078108;28;20031;-50
2021/08/13 14:24:37;;;;;;;6.82;3.28;;;;;;;;;;5076891;28;20020;-49
2021/08/13 14:27:02;;;;;;;8.23;4.18;;;;;;;;;;5073325;28;20107;-45